Time;durP1;ratioP1;P1;durP2;ratioP2;P2;SDS_P1;SDS_P2;PMS_P1;PMS_P2;Temp;Humidity;BMP_temperature;BMP_pressure;BME280_temperature;BME280_humidity;BME280_pressure;Samples;Min_cycle;Max_cycle;Signal;HPM_P1;HPM_P2
2022/07/07 00:00:14;;;;;;;7.60;5.03;;;;;;;20.19;68.72;100297.88;1758429;80;21510;-72
2022/07/07 00:02:41;;;;;;;8.15;4.70;;;;;;;20.22;68.50;100312.20;1766611;80;21058;-72
2022/07/07 00:05:08;;;;;;;8.80;5.28;;;;;;;20.16;68.16;100313.46;1750935;80;21055;-72
2022/07/07 00:07:34;;;;;;;9.45;4.90;;;;;;;20.06;68.52;100315.09;1776453;80;21058;-72
2022/07/07 00:10:01;;;;;;;6.58;4.62;;;;;;;20.07;68.26;100317.23;1761174;79;21045;-71
2022/07/07 00:12:28;;;;;;;6.78;3.83;;;;;;;20.10;67.89;100324.37;1765762;80;21093;-72
2022/07/07 00:14:55;;;;;;;8.00;4.58;;;;;;;20.04;67.89;100323.80;1755077;80;21320;-71
2022/07/07 00:17:21;;;;;;;6.70;3.50;;;;;;;19.98;67.80;100326.69;1760642;80;21333;-71
2022/07/07 00:19:47;;;;;;;7.40;3.65;;;;;;;19.92;67.72;100319.92;1758634;80;21043;-71
2022/07/07 00:22:14;;;;;;;5.85;3.22;;;;;;;19.87;67.61;100315.16;1761389;80;21087;-71
2022/07/07 00:24:40;;;;;;;5.12;3.30;;;;;;;19.89;67.31;100316.28;1757330;80;21131;-71
2022/07/07 00:27:07;;;;;;;8.60;3.92;;;;;;;19.86;67.11;100313.49;1758389;80;21022;-71
2022/07/07 00:29:34;;;;;;;6.10;3.60;;;;;;;19.80;67.24;100311.55;1757608;80;21031;-72
2022/07/07 00:32:01;;;;;;;5.35;3.10;;;;;;;19.72;67.13;100300.45;1764893;80;21582;-71
2022/07/07 00:34:28;;;;;;;5.00;2.90;;;;;;;19.64;66.89;100300.54;1756837;80;21083;-71
2022/07/07 00:36:54;;;;;;;6.15;2.87;;;;;;;19.65;66.84;100295.50;1750546;81;21122;-71
2022/07/07 00:39:21;;;;;;;4.60;2.70;;;;;;;19.66;67.01;100302.52;1747528;81;21052;-71
2022/07/07 00:41:47;;;;;;;5.30;2.92;;;;;;;19.59;67.06;100309.61;1749036;80;21035;-71
2022/07/07 00:44:14;;;;;;;4.67;2.50;;;;;;;19.55;67.14;100308.30;1754615;81;21019;-71
2022/07/07 00:46:47;;;;;;;5.10;2.85;;;;;;;19.56;67.12;100317.98;1746645;81;21047;-70
2022/07/07 00:49:13;;;;;;;4.95;2.70;;;;;;;19.61;67.20;100311.58;1749444;81;21144;-71
2022/07/07 00:51:41;;;;;;;4.92;2.37;;;;;;;19.60;67.00;100310.77;1744967;81;21022;-71
2022/07/07 00:54:08;;;;;;;7.70;2.62;;;;;;;19.49;67.06;100318.70;1750122;81;21104;-71
2022/07/07 00:56:35;;;;;;;4.35;2.02;;;;;;;19.32;66.70;100303.88;1745502;81;20998;-71
2022/07/07 00:59:07;;;;;;;4.80;2.20;;;;;;;19.26;66.60;100314.75;1744823;81;21568;-71
2022/07/07 01:01:38;;;;;;;4.30;2.15;;;;;;;19.17;66.83;100309.70;1729981;81;22342;-71
2022/07/07 01:04:11;;;;;;;4.50;2.08;;;;;;;19.18;66.92;100303.33;1751227;79;22245;-70
2022/07/07 01:06:38;;;;;;;7.40;2.22;;;;;;;19.24;66.78;100307.95;1752713;81;21020;-71
2022/07/07 01:09:05;;;;;;;5.58;2.10;;;;;;;19.22;66.49;100303.31;1685091;83;21075;-70
2022/07/07 01:11:54;;;;;;;4.78;1.85;;;;;;;19.20;66.58;100305.31;1689824;83;21057;-71
2022/07/07 01:14:22;;;;;;;3.90;1.30;;;;;;;19.15;66.64;100299.20;1694751;83;21167;-72
2022/07/07 01:16:49;;;;;;;3.90;1.72;;;;;;;19.12;66.00;100303.56;1694999;83;21577;-72
2022/07/07 01:19:16;;;;;;;3.67;1.52;;;;;;;19.11;65.86;100304.56;1697496;82;21513;-71
2022/07/07 01:21:54;;;;;;;3.17;1.40;;;;;;;19.07;66.00;100312.61;1708166;83;21500;-71
2022/07/07 01:24:22;;;;;;;4.70;1.60;;;;;;;19.05;66.06;100323.97;1751683;79;21023;-72
2022/07/07 01:26:49;;;;;;;8.83;1.55;;;;;;;18.98;65.90;100331.00;1675383;83;21109;-71
2022/07/07 01:29:15;;;;;;;4.95;1.52;;;;;;;18.93;66.17;100329.72;1752226;80;21499;-71
2022/07/07 01:31:41;;;;;;;3.83;1.30;;;;;;;18.97;65.64;100343.52;1752735;79;22132;-71
2022/07/07 01:34:08;;;;;;;5.58;1.60;;;;;;;18.97;65.85;100348.03;1753842;80;22256;-72
2022/07/07 01:36:35;;;;;;;3.50;1.70;;;;;;;18.96;65.91;100355.69;1756725;80;21009;-71
2022/07/07 01:39:01;;;;;;;4.92;1.60;;;;;;;18.94;65.72;100359.87;1695753;82;21595;-72
2022/07/07 01:41:29;;;;;;;2.92;1.35;;;;;;;18.89;65.45;100364.39;1752938;80;21108;-72
2022/07/07 01:43:55;;;;;;;5.85;1.40;;;;;;;18.85;65.63;100372.95;1758268;80;21083;-72
2022/07/07 01:49:03;;;;;;;3.98;1.62;;;;;;;18.98;65.45;100379.00;1807396;77;22608;-58
2022/07/07 01:51:29;;;;;;;3.52;1.40;;;;;;;18.91;64.83;100375.73;1772107;79;21556;-59
2022/07/07 01:53:56;;;;;;;4.45;1.47;;;;;;;18.84;64.61;100373.94;1771957;80;21743;-58
2022/07/07 01:56:23;;;;;;;3.55;1.20;;;;;;;18.71;64.91;100363.34;1769620;80;20986;-58
2022/07/07 01:58:49;;;;;;;5.62;1.70;;;;;;;18.70;65.16;100362.18;1769087;79;21002;-59
2022/07/07 02:01:16;;;;;;;5.22;1.37;;;;;;;18.75;65.26;100362.48;1769899;79;21047;-59
2022/07/07 02:03:43;;;;;;;4.78;1.85;;;;;;;18.82;64.34;100367.93;1771883;78;21061;-58
2022/07/07 02:06:10;;;;;;;9.33;2.12;;;;;;;18.81;63.76;100374.25;1769337;80;21324;-59
2022/07/07 02:08:36;;;;;;;4.83;1.62;;;;;;;18.72;64.03;100379.64;1776808;79;21037;-58
2022/07/07 02:11:15;;;;;;;2.92;1.40;;;;;;;18.65;64.01;100385.87;1772252;80;21070;-59
2022/07/07 02:13:47;;;;;;;2.77;1.20;;;;;;;18.56;64.51;100374.43;1769132;80;21058;-56
2022/07/07 02:16:15;;;;;;;4.67;1.35;;;;;;;18.50;64.17;100367.95;1769746;80;21101;-57
2022/07/07 02:18:42;;;;;;;3.65;1.27;;;;;;;18.49;64.23;100363.64;1771068;79;21136;-57
2022/07/07 02:21:10;;;;;;;5.00;1.40;;;;;;;18.47;64.48;100372.29;1773285;79;21679;-58
2022/07/07 02:23:37;;;;;;;4.80;1.40;;;;;;;18.44;64.88;100381.98;1778888;79;21437;-57
2022/07/07 02:26:04;;;;;;;3.77;1.60;;;;;;;18.44;64.88;100391.80;1776966;79;21277;-58
2022/07/07 02:28:31;;;;;;;4.33;1.45;;;;;;;18.44;64.66;100399.78;1770351;79;21177;-58
2022/07/07 02:30:57;;;;;;;3.27;1.10;;;;;;;18.43;64.23;100396.81;1773272;79;21118;-58
2022/07/07 02:33:24;;;;;;;4.53;1.70;;;;;;;18.44;64.40;100401.97;1741454;80;21023;-58
2022/07/07 02:35:51;;;;;;;6.25;1.77;;;;;;;18.38;64.25;100398.66;1721302;82;21063;-58
2022/07/07 02:38:17;;;;;;;4.62;2.22;;;;;;;18.28;64.77;100406.84;1703644;81;21289;-57
2022/07/07 02:40:44;;;;;;;3.67;1.77;;;;;;;18.22;64.97;100412.03;1718072;83;21082;-58
2022/07/07 02:43:14;;;;;;;5.47;1.50;;;;;;;18.23;64.91;100402.54;1738712;81;21229;-57
2022/07/07 02:45:43;;;;;;;4.78;1.95;;;;;;;18.26;64.82;100411.52;1703415;83;21063;-58
2022/07/07 02:48:11;;;;;;;5.30;2.10;;;;;;;18.22;64.82;100406.20;1713878;82;21043;-58
2022/07/07 02:50:38;;;;;;;4.17;1.72;;;;;;;18.20;64.85;100409.03;1759173;79;21062;-58
2022/07/07 02:53:06;;;;;;;3.42;1.37;;;;;;;18.16;64.77;100400.25;1769803;80;21098;-58
2022/07/07 02:55:33;;;;;;;4.75;1.35;;;;;;;18.12;64.95;100414.89;1769503;79;21132;-58
2022/07/07 02:58:00;;;;;;;8.70;1.50;;;;;;;18.14;64.87;100412.40;1747224;80;21093;-59
2022/07/07 03:00:27;;;;;;;3.98;1.50;;;;;;;18.13;65.00;100413.39;1756892;79;21051;-58
2022/07/07 03:02:55;;;;;;;3.75;1.55;;;;;;;18.12;65.14;100425.54;1759075;80;21126;-58
2022/07/07 03:05:23;;;;;;;3.47;1.42;;;;;;;18.08;65.07;100418.91;1760572;80;21134;-59
2022/07/07 03:07:49;;;;;;;3.80;1.62;;;;;;;18.06;65.22;100420.92;1752111;79;21156;-58
2022/07/07 03:10:16;;;;;;;5.55;1.30;;;;;;;18.06;65.22;100403.61;1755582;79;21027;-58
2022/07/07 03:12:43;;;;;;;3.95;1.35;;;;;;;18.08;65.10;100416.25;1751308;80;21015;-58
2022/07/07 03:15:10;;;;;;;3.05;1.00;;;;;;;18.05;65.24;100412.59;1755153;79;21004;-58
2022/07/07 03:17:43;;;;;;;2.92;1.30;;;;;;;18.03;65.23;100422.59;1770262;79;21597;-58
2022/07/07 03:20:11;;;;;;;3.12;1.15;;;;;;;18.00;65.57;100429.07;1762953;80;21085;-58
2022/07/07 03:22:38;;;;;;;3.90;1.22;;;;;;;18.04;65.56;100421.56;1761771;80;21042;-58
2022/07/07 03:25:08;;;;;;;4.22;1.30;;;;;;;18.10;65.56;100418.23;1758639;79;21066;-58
2022/07/07 03:27:34;;;;;;;3.20;1.10;;;;;;;18.13;65.61;100403.25;1754200;80;21030;-58
2022/07/07 03:30:04;;;;;;;4.08;1.30;;;;;;;18.15;65.66;100395.91;1756414;79;21054;-59
2022/07/07 03:32:31;;;;;;;3.08;1.00;;;;;;;18.14;65.52;100390.25;1754802;80;21146;-59
2022/07/07 03:34:57;;;;;;;4.42;1.25;;;;;;;18.16;65.66;100389.59;1754740;79;21083;-58
2022/07/07 03:37:24;;;;;;;2.50;0.90;;;;;;;18.18;65.58;100398.23;1757360;80;21078;-58
2022/07/07 03:39:51;;;;;;;2.95;1.07;;;;;;;18.15;65.95;100405.23;1755333;80;21027;-58
2022/07/07 03:42:18;;;;;;;4.30;1.00;;;;;;;18.13;65.81;100396.08;1760712;80;21067;-58
2022/07/07 03:44:44;;;;;;;2.98;1.20;;;;;;;18.13;65.66;100397.92;1757835;80;21122;-58
2022/07/07 03:47:12;;;;;;;5.55;1.15;;;;;;;18.17;65.89;100401.89;1752018;79;21020;-58
2022/07/07 03:49:39;;;;;;;3.72;1.17;;;;;;;18.24;65.32;100404.22;1766996;79;21095;-58
2022/07/07 03:52:06;;;;;;;4.25;1.25;;;;;;;18.25;65.23;100412.52;1767819;80;21467;-58
2022/07/07 03:54:33;;;;;;;2.98;1.20;;;;;;;18.26;65.01;100415.52;1761506;80;21016;-59
2022/07/07 03:57:00;;;;;;;3.52;0.98;;;;;;;18.28;65.01;100428.66;1771236;79;21070;-58
2022/07/07 03:59:26;;;;;;;3.05;0.75;;;;;;;18.24;64.92;100428.19;1774537;79;21066;-58
2022/07/07 04:01:53;;;;;;;2.52;0.90;;;;;;;18.25;65.06;100438.33;1767676;79;21454;-58
2022/07/07 04:04:20;;;;;;;2.75;1.10;;;;;;;18.26;64.94;100447.48;1766607;79;21102;-58
2022/07/07 04:06:46;;;;;;;3.87;1.37;;;;;;;18.24;64.88;100450.83;1761888;80;21071;-58
2022/07/07 04:09:13;;;;;;;3.37;1.10;;;;;;;18.19;65.02;100449.17;1768231;79;21141;-59
2022/07/07 04:11:39;;;;;;;4.17;1.30;;;;;;;18.14;65.14;100456.34;1767849;79;20995;-59
2022/07/07 04:14:06;;;;;;;2.08;0.80;;;;;;;18.14;64.93;100448.83;1768050;79;21075;-58
2022/07/07 04:16:34;;;;;;;3.12;1.10;;;;;;;18.12;65.26;100454.36;1763498;80;21544;-58
2022/07/07 04:19:01;;;;;;;3.25;1.37;;;;;;;18.10;65.48;100451.00;1769123;79;21093;-59
2022/07/07 04:21:27;;;;;;;2.08;0.80;;;;;;;18.09;65.27;100454.69;1765256;79;21147;-59
2022/07/07 04:23:54;;;;;;;3.20;0.88;;;;;;;18.10;65.15;100468.31;1770779;79;21093;-58
2022/07/07 04:26:21;;;;;;;3.00;1.20;;;;;;;18.15;65.13;100471.80;1761063;79;21146;-58
2022/07/07 04:28:47;;;;;;;2.58;1.07;;;;;;;18.16;65.34;100469.48;1761921;80;21133;-58
2022/07/07 04:31:14;;;;;;;4.55;1.30;;;;;;;18.17;65.49;100467.13;1769120;79;21066;-58
2022/07/07 04:33:40;;;;;;;2.20;0.85;;;;;;;18.17;65.36;100455.15;1763437;79;21843;-58
2022/07/07 04:36:09;;;;;;;1.65;0.85;;;;;;;18.16;64.95;100454.33;1759041;79;21117;-58
2022/07/07 04:38:35;;;;;;;2.22;0.68;;;;;;;18.19;64.82;100453.17;1763885;80;21057;-58
2022/07/07 04:41:02;;;;;;;2.12;0.90;;;;;;;18.18;65.24;100455.49;1766129;79;21039;-59
2022/07/07 04:43:29;;;;;;;2.17;0.80;;;;;;;18.15;65.28;100454.50;1760027;79;21058;-59
2022/07/07 04:45:56;;;;;;;2.52;0.90;;;;;;;18.13;65.53;100460.50;1765314;79;21059;-58
2022/07/07 04:48:22;;;;;;;3.20;1.00;;;;;;;18.17;65.39;100458.66;1763847;80;21432;-57
2022/07/07 04:50:51;;;;;;;2.33;1.02;;;;;;;18.23;65.17;100470.45;1754743;80;21407;-59
2022/07/07 04:53:17;;;;;;;1.82;0.85;;;;;;;18.28;65.16;100462.78;1754733;81;21627;-58
2022/07/07 04:55:44;;;;;;;3.00;1.00;;;;;;;18.29;64.92;100455.13;1750883;80;21087;-58
2022/07/07 04:58:21;;;;;;;2.60;1.00;;;;;;;18.26;64.86;100455.47;1758530;80;21122;-59
2022/07/07 05:00:47;;;;;;;3.55;1.27;;;;;;;18.25;64.99;100462.30;1755880;79;21051;-58
2022/07/07 05:03:15;;;;;;;3.12;1.25;;;;;;;18.21;64.99;100475.13;1752394;80;21070;-58
2022/07/07 05:05:41;;;;;;;6.03;1.10;;;;;;;18.18;64.93;100478.13;1749036;80;21090;-58
2022/07/07 05:08:08;;;;;;;3.40;1.30;;;;;;;18.17;65.22;100483.11;1757569;81;21145;-57
2022/07/07 05:10:36;;;;;;;5.33;1.25;;;;;;;18.16;65.04;100479.62;1751228;80;21529;-58
2022/07/07 05:13:02;;;;;;;5.00;1.40;;;;;;;18.21;65.07;100484.45;1725236;81;21149;-58
2022/07/07 05:15:29;;;;;;;4.03;1.20;;;;;;;18.22;64.85;100487.94;1751237;80;21074;-57
2022/07/07 05:17:55;;;;;;;3.40;1.10;;;;;;;18.20;65.28;100505.41;1755586;81;21015;-58
2022/07/07 05:20:22;;;;;;;5.53;1.20;;;;;;;18.18;64.76;100491.45;1756797;79;21058;-58
2022/07/07 05:22:49;;;;;;;2.50;1.00;;;;;;;18.18;64.91;100496.77;1752610;81;21564;-57
2022/07/07 05:25:15;;;;;;;2.95;1.10;;;;;;;18.22;64.84;100495.41;1756942;79;21103;-57
2022/07/07 05:27:44;;;;;;;3.65;1.30;;;;;;;18.28;64.62;100496.59;1756604;81;21055;-58
2022/07/07 05:30:12;;;;;;;3.80;1.50;;;;;;;18.28;64.50;100493.92;1750939;79;21003;-58
2022/07/07 05:32:39;;;;;;;4.40;1.50;;;;;;;18.28;64.63;100496.08;1751368;79;21533;-58
2022/07/07 05:35:06;;;;;;;3.50;1.30;;;;;;;18.28;64.47;100499.25;1749238;79;21919;-57
2022/07/07 05:37:33;;;;;;;3.80;1.25;;;;;;;18.29;64.41;100500.41;1753728;79;21004;-57
2022/07/07 05:40:00;;;;;;;3.55;1.15;;;;;;;18.34;64.02;100503.88;1755271;79;21112;-57
2022/07/07 05:42:26;;;;;;;5.15;1.52;;;;;;;18.34;64.37;100502.55;1754668;80;21113;-58
2022/07/07 05:44:53;;;;;;;3.58;1.37;;;;;;;18.32;64.31;100506.70;1743854;80;21522;-58
2022/07/07 05:47:20;;;;;;;3.47;1.40;;;;;;;18.31;64.32;100513.05;1756698;81;21778;-57
2022/07/07 05:49:46;;;;;;;4.40;1.17;;;;;;;18.29;64.26;100511.07;1749080;79;21637;-57
2022/07/07 05:52:13;;;;;;;3.52;1.35;;;;;;;18.35;64.49;100514.36;1754456;81;21020;-58
2022/07/07 05:54:39;;;;;;;4.92;1.90;;;;;;;18.49;64.16;100513.33;1753063;79;21074;-57
2022/07/07 05:57:06;;;;;;;4.08;2.08;;;;;;;18.58;63.53;100509.65;1757585;81;21062;-57
2022/07/07 05:59:33;;;;;;;4.50;1.92;;;;;;;18.63;63.57;100514.47;1757120;80;21126;-58
2022/07/07 06:01:59;;;;;;;5.25;2.50;;;;;;;18.65;63.77;100514.61;1755256;80;21129;-58
2022/07/07 06:04:26;;;;;;;4.47;2.20;;;;;;;18.65;63.11;100515.94;1754910;80;21090;-58
2022/07/07 06:06:53;;;;;;;5.62;2.47;;;;;;;18.67;63.49;100516.59;1757518;80;21055;-57
2022/07/07 06:09:20;;;;;;;4.65;2.77;;;;;;;18.72;63.37;100520.91;1755305;79;21058;-57
2022/07/07 06:11:47;;;;;;;4.78;2.50;;;;;;;18.79;63.34;100523.70;1754603;81;21198;-57
2022/07/07 06:14:14;;;;;;;4.62;2.65;;;;;;;18.81;62.61;100524.87;1750279;80;21129;-57
2022/07/07 06:16:42;;;;;;;5.95;3.00;;;;;;;18.79;62.97;100530.38;1757995;80;21023;-57
2022/07/07 06:19:12;;;;;;;5.03;2.65;;;;;;;18.79;62.82;100522.38;1752665;81;21528;-57
2022/07/07 06:21:39;;;;;;;5.30;2.12;;;;;;;18.82;62.69;100529.21;1755678;79;21066;-58
2022/07/07 06:24:06;;;;;;;4.35;2.80;;;;;;;18.86;62.69;100542.54;1760100;80;21221;-58
2022/07/07 06:26:34;;;;;;;4.62;2.47;;;;;;;18.89;62.26;100545.69;1754924;80;21588;-58
2022/07/07 06:29:00;;;;;;;6.50;2.50;;;;;;;18.92;62.52;100547.19;1757469;81;21124;-57
2022/07/07 06:31:27;;;;;;;4.80;2.55;;;;;;;18.97;62.15;100555.50;1753700;80;21056;-58
2022/07/07 06:33:53;;;;;;;4.37;2.30;;;;;;;18.97;62.26;100544.83;1747593;81;21089;-57
2022/07/07 06:36:19;;;;;;;6.10;2.80;;;;;;;19.01;62.15;100546.64;1753931;80;21110;-58
2022/07/07 06:38:46;;;;;;;10.68;2.87;;;;;;;19.01;62.03;100539.98;1754016;80;21062;-57
2022/07/07 06:41:12;;;;;;;4.55;2.25;;;;;;;19.07;62.06;100550.78;1752425;79;21054;-57
2022/07/07 06:43:39;;;;;;;6.17;2.75;;;;;;;19.12;61.46;100552.93;1754788;80;21190;-58
2022/07/07 06:46:06;;;;;;;11.90;3.15;;;;;;;19.13;61.70;100549.23;1757113;80;21012;-58
2022/07/07 06:48:32;;;;;;;5.37;2.65;;;;;;;19.14;61.77;100546.91;1756152;80;22106;-57
2022/07/07 06:50:59;;;;;;;4.80;2.95;;;;;;;19.16;61.14;100545.41;1754945;79;21497;-57
2022/07/07 06:53:26;;;;;;;4.40;2.50;;;;;;;19.16;61.06;100542.73;1751906;79;21035;-57
2022/07/07 06:55:52;;;;;;;4.42;2.65;;;;;;;19.14;61.15;100539.42;1747027;80;21123;-58
2022/07/07 06:58:19;;;;;;;5.03;2.42;;;;;;;19.17;61.03;100539.08;1762462;79;21142;-58
2022/07/07 07:00:45;;;;;;;4.12;2.30;;;;;;;19.25;61.27;100549.70;1752578;79;21176;-57
2022/07/07 07:03:12;;;;;;;4.58;2.27;;;;;;;19.33;61.17;100544.30;1755579;80;21117;-57
2022/07/07 07:05:38;;;;;;;5.33;2.55;;;;;;;19.36;61.01;100544.46;1752244;79;21000;-57
2022/07/07 07:08:06;;;;;;;4.92;2.52;;;;;;;19.36;60.93;100541.28;1759592;79;21015;-58
2022/07/07 07:10:34;;;;;;;4.45;2.10;;;;;;;19.34;60.76;100537.14;1746081;80;21525;-58
2022/07/07 07:13:00;;;;;;;4.97;2.20;;;;;;;19.37;60.96;100540.28;1756520;80;21249;-57
2022/07/07 07:15:27;;;;;;;4.30;2.05;;;;;;;19.40;60.65;100539.08;1754598;80;21094;-58
2022/07/07 07:17:53;;;;;;;6.15;1.92;;;;;;;19.42;60.69;100541.09;1755933;79;21113;-58
2022/07/07 07:20:22;;;;;;;4.08;1.87;;;;;;;19.49;60.67;100534.03;1752038;80;21027;-58
2022/07/07 07:22:49;;;;;;;4.72;1.85;;;;;;;19.54;60.46;100542.34;1757373;80;21625;-58
2022/07/07 07:25:17;;;;;;;5.50;2.02;;;;;;;19.55;60.58;100537.34;1762567;80;21763;-58
2022/07/07 07:27:44;;;;;;;6.42;2.00;;;;;;;19.61;60.81;100535.78;1757637;80;21037;-58
2022/07/07 07:30:14;;;;;;;4.42;2.27;;;;;;;19.66;60.98;100536.08;1757243;79;21011;-57
2022/07/07 07:32:41;;;;;;;4.40;1.70;;;;;;;19.70;61.00;100540.55;1757096;80;21019;-57
2022/07/07 07:35:08;;;;;;;3.90;1.77;;;;;;;19.76;60.92;100547.88;1752190;80;21106;-58
2022/07/07 07:37:35;;;;;;;5.25;1.72;;;;;;;19.81;60.61;100550.33;1752659;79;21168;-58
2022/07/07 07:40:04;;;;;;;4.17;1.62;;;;;;;19.84;60.67;100549.98;1755131;79;21082;-57
2022/07/07 07:42:30;;;;;;;5.37;2.00;;;;;;;19.86;60.81;100554.63;1755194;80;21058;-58
2022/07/07 07:45:09;;;;;;;4.17;2.17;;;;;;;19.94;61.32;100555.56;1756405;80;21043;-57
2022/07/07 07:47:41;;;;;;;4.83;1.85;;;;;;;20.02;61.09;100554.16;1758031;80;21269;-57
2022/07/07 07:50:11;;;;;;;4.65;1.87;;;;;;;20.12;61.21;100551.23;1758285;80;21158;-57
2022/07/07 07:52:39;;;;;;;3.80;1.90;;;;;;;20.20;59.95;100555.98;1754719;79;21010;-57
2022/07/07 07:55:07;;;;;;;3.60;1.67;;;;;;;20.21;59.60;100559.52;1760684;80;21094;-61
2022/07/07 07:57:35;;;;;;;3.67;1.50;;;;;;;20.21;60.12;100556.84;1756506;80;21155;-58
2022/07/07 08:00:04;;;;;;;3.90;1.65;;;;;;;20.21;60.24;100559.52;1753655;79;21102;-58
2022/07/07 08:02:32;;;;;;;4.37;1.82;;;;;;;20.16;59.83;100557.38;1753654;80;21097;-59
2022/07/07 08:04:59;;;;;;;4.67;1.98;;;;;;;20.13;60.33;100564.41;1748416;80;21062;-58
2022/07/07 08:07:26;;;;;;;3.72;1.72;;;;;;;20.17;59.53;100559.05;1754464;79;20976;-58
2022/07/07 08:09:54;;;;;;;6.37;2.27;;;;;;;20.24;59.68;100557.82;1754464;80;21132;-58
2022/07/07 08:12:21;;;;;;;4.25;2.00;;;;;;;20.26;59.94;100554.94;1752500;79;21059;-58
2022/07/07 08:14:47;;;;;;;3.70;1.90;;;;;;;20.28;59.63;100561.77;1748683;80;21153;-57
2022/07/07 08:17:14;;;;;;;4.08;2.00;;;;;;;20.30;60.01;100564.27;1761452;79;21055;-58
2022/07/07 08:19:41;;;;;;;4.12;2.33;;;;;;;20.28;59.34;100564.45;1770597;80;21054;-58
2022/07/07 08:22:07;;;;;;;3.70;1.90;;;;;;;20.31;59.88;100568.58;1756688;80;21106;-58
2022/07/07 08:24:33;;;;;;;3.95;1.82;;;;;;;20.41;59.99;100565.16;1767880;80;21043;-59
2022/07/07 08:27:00;;;;;;;4.12;2.15;;;;;;;20.52;59.64;100571.89;1759193;79;21225;-59
2022/07/07 08:29:27;;;;;;;4.22;2.15;;;;;;;20.58;59.10;100573.31;1758895;79;21089;-58
2022/07/07 08:31:53;;;;;;;4.20;2.20;;;;;;;20.68;59.27;100574.91;1749734;80;21124;-58
2022/07/07 08:34:20;;;;;;;4.42;2.22;;;;;;;20.75;58.44;100577.19;1763706;79;21118;-58
2022/07/07 08:36:46;;;;;;;5.10;2.17;;;;;;;20.78;57.76;100576.81;1757020;79;21063;-58
2022/07/07 08:39:13;;;;;;;3.95;2.30;;;;;;;20.77;58.11;100575.15;1758220;79;21124;-59
2022/07/07 08:41:41;;;;;;;4.53;2.20;;;;;;;20.77;57.88;100572.47;1749852;79;20951;-58
2022/07/07 08:44:07;;;;;;;4.40;2.37;;;;;;;20.75;58.15;100575.33;1759217;79;21062;-58
2022/07/07 08:46:34;;;;;;;4.70;2.50;;;;;;;20.75;58.15;100578.52;1759912;80;21075;-59
2022/07/07 08:49:00;;;;;;;5.03;2.50;;;;;;;20.77;58.21;100576.48;1760299;80;21058;-59
2022/07/07 08:51:27;;;;;;;5.17;2.20;;;;;;;20.82;58.93;100583.44;1759311;80;21167;-58
2022/07/07 08:53:54;;;;;;;4.10;2.25;;;;;;;20.82;58.08;100580.77;1755286;80;21054;-58
2022/07/07 08:56:21;;;;;;;5.50;2.30;;;;;;;20.80;57.92;100586.00;1759488;80;21099;-58
2022/07/07 08:58:48;;;;;;;4.33;2.30;;;;;;;20.77;58.04;100588.00;1754972;80;21066;-58
2022/07/07 09:01:14;;;;;;;4.12;2.10;;;;;;;20.81;58.20;100585.78;1754189;79;21082;-58
2022/07/07 09:03:41;;;;;;;4.37;2.12;;;;;;;20.86;58.26;100588.73;1750785;80;21087;-58
2022/07/07 09:06:08;;;;;;;3.62;1.90;;;;;;;20.91;58.44;100586.36;1763530;80;21094;-58
2022/07/07 09:08:34;;;;;;;4.53;2.30;;;;;;;20.97;58.50;100594.95;1758549;80;21048;-57
2022/07/07 09:11:01;;;;;;;3.62;2.10;;;;;;;21.04;58.77;100599.57;1739055;80;21110;-58
2022/07/07 09:13:32;;;;;;;3.67;2.08;;;;;;;21.15;57.58;100601.78;1733222;80;21058;-58
2022/07/07 09:16:04;;;;;;;4.30;1.82;;;;;;;21.25;57.62;100602.80;1755094;79;21035;-58
2022/07/07 09:18:35;;;;;;;4.12;2.35;;;;;;;21.35;57.92;100606.03;1757379;80;21059;-58
2022/07/07 09:21:04;;;;;;;5.20;2.27;;;;;;;21.43;56.69;100609.09;1759462;80;21106;-58
2022/07/07 09:23:31;;;;;;;4.00;2.22;;;;;;;21.41;56.44;100613.81;1771894;80;21008;-58
2022/07/07 09:25:58;;;;;;;5.45;2.40;;;;;;;21.44;56.78;100613.44;1768666;79;21648;-58
2022/07/07 09:28:26;;;;;;;5.62;2.40;;;;;;;21.47;56.23;100615.25;1769666;80;21224;-58
2022/07/07 09:30:53;;;;;;;4.03;2.33;;;;;;;21.47;56.49;100615.77;1754915;79;21071;-58
2022/07/07 09:33:23;;;;;;;3.65;1.92;;;;;;;21.49;57.06;100611.05;1748475;79;20992;-58
2022/07/07 09:38:39;;;;;;;3.52;1.82;;;;;;;21.66;56.05;100611.13;1752934;80;21048;-58
2022/07/07 09:41:12;;;;;;;3.25;1.82;;;;;;;21.76;55.36;100612.16;1752843;79;22493;-58
2022/07/07 09:43:48;;;;;;;3.83;1.82;;;;;;;21.84;55.25;100598.64;1741787;80;21099;-59
2022/07/07 09:46:25;;;;;;;4.25;2.15;;;;;;;21.91;54.75;100600.05;1741695;80;21067;-58
2022/07/07 09:48:59;;;;;;;3.87;2.20;;;;;;;21.92;54.24;100610.23;1753992;79;21063;-57
2022/07/07 09:51:30;;;;;;;3.67;2.00;;;;;;;21.91;55.06;100611.28;1760375;80;21114;-57
2022/07/07 09:54:01;;;;;;;4.47;1.95;;;;;;;21.93;54.62;100606.55;1756776;79;21184;-58
2022/07/07 09:56:35;;;;;;;4.80;2.27;;;;;;;21.97;54.69;100607.81;1762599;80;21066;-58
2022/07/07 09:59:06;;;;;;;4.00;2.30;;;;;;;22.03;55.42;100609.21;1754350;80;21097;-58
2022/07/07 10:01:35;;;;;;;5.75;2.22;;;;;;;22.12;55.15;100611.23;1763829;79;21035;-59
2022/07/07 10:04:05;;;;;;;4.40;2.50;;;;;;;22.22;54.72;100605.03;1756356;79;21133;-58
2022/07/07 10:06:35;;;;;;;3.70;2.08;;;;;;;22.31;54.17;100599.56;1751032;80;21303;-59
2022/07/07 10:09:10;;;;;;;5.90;2.40;;;;;;;22.47;54.75;100601.13;1764508;79;21034;-58
2022/07/07 10:11:42;;;;;;;4.55;2.20;;;;;;;22.59;54.33;100599.06;1766674;80;21035;-59
2022/07/07 10:14:17;;;;;;;4.45;2.60;;;;;;;22.64;53.40;100593.08;1758399;80;21122;-58
2022/07/07 10:16:48;;;;;;;4.20;2.20;;;;;;;22.67;53.20;100591.36;1753376;80;21027;-59
2022/07/07 10:19:17;;;;;;;4.33;2.47;;;;;;;22.65;53.06;100592.07;1744911;80;21327;-58
2022/07/07 10:21:49;;;;;;;4.28;2.50;;;;;;;22.66;52.89;100588.34;1760639;79;21008;-58
2022/07/07 10:24:17;;;;;;;3.77;2.17;;;;;;;22.66;52.99;100593.70;1752428;80;21500;-58
2022/07/07 10:26:53;;;;;;;4.97;2.75;;;;;;;22.67;52.82;100592.70;1754404;80;21525;-58
2022/07/07 10:29:55;;;;;;;3.90;2.25;;;;;;;22.71;52.52;100600.68;1747395;80;21005;-58
2022/07/07 10:32:40;;;;;;;4.62;2.33;;;;;;;22.79;52.97;100596.47;1756681;79;21131;-57
2022/07/07 10:35:14;;;;;;;4.80;2.25;;;;;;;22.84;52.40;100597.74;1766731;79;21052;-58
2022/07/07 10:37:47;;;;;;;4.62;2.50;;;;;;;22.80;51.92;100600.00;1757831;79;21046;-59
2022/07/07 10:40:26;;;;;;;3.72;2.15;;;;;;;22.79;52.51;100602.36;1759508;80;21098;-58
2022/07/07 10:43:33;;;;;;;3.90;2.10;;;;;;;22.82;52.07;100598.77;1742105;80;21027;-59
2022/07/07 10:46:01;;;;;;;4.25;2.30;;;;;;;22.87;51.86;100594.15;1756305;79;22387;-57
2022/07/07 10:48:50;;;;;;;3.87;2.35;;;;;;;22.97;52.31;100597.81;1732469;81;21316;-58
2022/07/07 10:51:29;;;;;;;3.37;1.90;;;;;;;23.08;51.32;100604.48;1758558;79;21066;-59
2022/07/07 10:54:08;;;;;;;4.65;2.40;;;;;;;23.15;51.81;100608.87;1759184;80;21024;-58
2022/07/07 10:56:59;;;;;;;3.85;2.00;;;;;;;23.21;50.87;100606.41;1762159;80;21047;-59
2022/07/07 10:59:25;;;;;;;3.58;2.15;;;;;;;23.19;51.58;100604.73;1762416;79;22080;-58
2022/07/07 11:02:08;;;;;;;7.45;2.20;;;;;;;23.23;51.31;100603.00;1669148;84;21538;-59
2022/07/07 11:04:51;;;;;;;4.15;2.37;;;;;;;23.32;52.08;100605.84;1707954;84;21075;-59
2022/07/07 11:07:20;;;;;;;4.62;2.05;;;;;;;23.40;50.69;100612.34;1704756;82;21137;-56
2022/07/07 11:10:04;;;;;;;3.58;2.08;;;;;;;23.39;50.91;100605.34;1703959;83;21131;-58
2022/07/07 11:12:43;;;;;;;5.00;2.30;;;;;;;23.42;51.13;100610.30;1757079;80;21082;-58
2022/07/07 11:15:21;;;;;;;3.80;2.17;;;;;;;23.50;50.57;100603.41;1751719;79;21050;-58
2022/07/07 11:18:00;;;;;;;3.77;2.15;;;;;;;23.50;50.32;100604.75;1694555;82;21063;-57
2022/07/07 11:20:30;;;;;;;5.58;1.95;;;;;;;23.47;49.79;100597.09;1696049;83;21123;-58
2022/07/07 11:23:12;;;;;;;3.85;2.10;;;;;;;23.45;50.26;100592.45;1758620;79;21522;-58
2022/07/07 11:25:40;;;;;;;4.33;2.30;;;;;;;23.49;51.25;100604.44;1758266;80;21108;-57
2022/07/07 11:28:10;;;;;;;8.83;2.20;;;;;;;23.57;49.15;100603.43;1761070;80;21122;-58
2022/07/07 11:30:43;;;;;;;5.03;1.92;;;;;;;23.65;49.27;100599.70;1755229;79;21125;-59
2022/07/07 11:33:07;;;;;;;3.58;1.85;;;;;;;23.77;50.20;100603.47;1758304;80;21074;-58
2022/07/07 11:35:40;;;;;;;3.47;2.00;;;;;;;23.91;49.91;100608.37;1751271;79;21118;-58